Mac Dill Air Force Base
KMCF : now visible

Airfield :











YOU CAN JOIN US ON...

 
LOGIN :

Register | Disclaimer

   EN    FR    IT 

 









Legend :    VFR   Marginal VFR   IFR   Intensive IFR   Very Intensive IFR
Visi :
Ceiling :
>= 8 km
>= 3000ft
5 to 8 km
1000 to 3000 ft
1500m to 5 km
500 to 1000 ft
800 to 1500m
200 to 500 ft
< 800m
< 200 ft
Symbols :   Thunderstorms  Fog  Heavy snow  Heavy precipitations  Wind > 20 kt






- Airport Elevation : 14 ft


KMCF - Mac Dill Air Force Base

CURRENT METAR :
  • 080356Z AUTO 29003KT 10SM CLR 27/23 A3004 RMK AO2 SLP175 T02670229 FZRANO $

EXPIRED METARs :
  • 080256Z AUTO 29006KT 10SM FEW021 SCT026 SCT065 27/24 A3004 RMK AO2 RAB29E42DZB42E43RAB43E44 SLP175 P0002 60002 T02670237 50006 FZRANO $
  • 080244Z AUTO 30006KT 10SM FEW021 BKN026 BKN065 27/24 A3004 RMK AO2 RAB29E42DZB42E43RAB43E44 SLP175 FZRANO $
  • 080234Z AUTO 26009G16KT 10SM +RA FEW019 BKN026 28/25 A3004 RMK AO2 RAB29 BKN V FEW SLP175 FZRANO $
  • 080229Z AUTO 27005KT 10SM -RA SCT026 29/24 A3004 RMK AO2 RAB29 SLP175 FZRANO $
  • 080156Z AUTO 25003KT 10SM FEW026 29/24 A3003 RMK AO2 SLP172 T02900243 FZRANO $

TAF TAF KMCF
Valid from the 07 at 17:00 until the 08 at 23:00 UTC


071700Z 0717/0823 25012KT 9000 -SHRA VCTS SCT040CB QNH3006INS
BECMG 0801/0802 VRB06KT 9000 -SHRA SCT040 QNH3000INS
BECMG 0808/0809 VRB06KT 9999 NSW FEW020 QNH3001INS
BECMG 0815/0816 27012KT 9000 -SHRA VCTS SCT040CB BKN120 QNH2994INS
TEMPO 0817/0823 VRB10G15KT 9000 -TSRA SCT040CB BKN120 TX33/0718Z TN26/0805Z
KZMA FIR / North America



MET'MAP, your aeronautical weather chart ! - Copyright ORBIFLY December 2007 - Disclaimer

ORBIFLY MET'MAP TEAM :

Programming & Development : Alexandra Zaïnal
Concept & original design : Baudouin d'Aumeries
Assistance for programming : Marc-Olivier Méhu
Technical & hardware support : Manuel Goepfert

Contact : metmap@orbifly.com




SOURCES & CREDITS :

   NOAA       Earth
Advisory